sensor_id;sensor_type;location;lat;lon;timestamp;temperature;humidity
4840;DHT22;2434;48.486;7.964;2024-03-25T00:01:29;5.90;67.30
4840;DHT22;2434;48.486;7.964;2024-03-25T00:03:56;5.90;67.20
4840;DHT22;2434;48.486;7.964;2024-03-25T00:06:23;5.90;67.30
4840;DHT22;2434;48.486;7.964;2024-03-25T00:08:51;5.90;67.10
4840;DHT22;2434;48.486;7.964;2024-03-25T00:11:17;5.90;67.90
4840;DHT22;2434;48.486;7.964;2024-03-25T00:13:44;5.90;67.00
4840;DHT22;2434;48.486;7.964;2024-03-25T00:16:10;5.90;67.10
4840;DHT22;2434;48.486;7.964;2024-03-25T00:18:37;5.90;66.90
4840;DHT22;2434;48.486;7.964;2024-03-25T00:21:03;5.90;66.80
4840;DHT22;2434;48.486;7.964;2024-03-25T00:23:32;5.90;67.00
4840;DHT22;2434;48.486;7.964;2024-03-25T00:25:58;5.90;67.10
4840;DHT22;2434;48.486;7.964;2024-03-25T00:28:25;5.90;67.20
4840;DHT22;2434;48.486;7.964;2024-03-25T00:30:51;5.90;67.20
4840;DHT22;2434;48.486;7.964;2024-03-25T00:33:18;5.90;67.10
4840;DHT22;2434;48.486;7.964;2024-03-25T00:35:44;6.00;66.80
4840;DHT22;2434;48.486;7.964;2024-03-25T00:38:12;5.90;66.70
4840;DHT22;2434;48.486;7.964;2024-03-25T00:40:39;5.90;66.90
4840;DHT22;2434;48.486;7.964;2024-03-25T00:43:07;5.90;66.80
4840;DHT22;2434;48.486;7.964;2024-03-25T00:45:33;5.90;66.80
4840;DHT22;2434;48.486;7.964;2024-03-25T00:48:00;5.90;66.90
4840;DHT22;2434;48.486;7.964;2024-03-25T00:50:26;5.90;66.90
4840;DHT22;2434;48.486;7.964;2024-03-25T00:52:53;5.90;66.70
4840;DHT22;2434;48.486;7.964;2024-03-25T00:55:19;5.90;66.80
4840;DHT22;2434;48.486;7.964;2024-03-25T00:57:48;5.90;66.70
4840;DHT22;2434;48.486;7.964;2024-03-25T01:00:14;5.90;66.50
4840;DHT22;2434;48.486;7.964;2024-03-25T01:02:43;6.00;66.30
4840;DHT22;2434;48.486;7.964;2024-03-25T01:05:09;6.00;66.30
4840;DHT22;2434;48.486;7.964;2024-03-25T01:07:37;5.90;66.20
4840;DHT22;2434;48.486;7.964;2024-03-25T01:10:04;5.90;66.50
4840;DHT22;2434;48.486;7.964;2024-03-25T01:12:32;5.90;66.60
4840;DHT22;2434;48.486;7.964;2024-03-25T01:14:59;5.90;66.50
4840;DHT22;2434;48.486;7.964;2024-03-25T01:17:27;5.80;66.00
4840;DHT22;2434;48.486;7.964;2024-03-25T01:19:54;5.80;66.30
4840;DHT22;2434;48.486;7.964;2024-03-25T01:22:21;5.70;66.60
4840;DHT22;2434;48.486;7.964;2024-03-25T01:24:47;5.70;66.60
4840;DHT22;2434;48.486;7.964;2024-03-25T01:27:14;5.70;66.80
4840;DHT22;2434;48.486;7.964;2024-03-25T01:29:40;5.70;66.60
4840;DHT22;2434;48.486;7.964;2024-03-25T01:32:08;5.70;66.80
4840;DHT22;2434;48.486;7.964;2024-03-25T01:34:35;5.70;66.80
4840;DHT22;2434;48.486;7.964;2024-03-25T01:37:02;5.70;66.50
4840;DHT22;2434;48.486;7.964;2024-03-25T01:39:29;5.80;66.30
4840;DHT22;2434;48.486;7.964;2024-03-25T01:41:56;5.70;66.30
4840;DHT22;2434;48.486;7.964;2024-03-25T01:44:22;5.80;66.30
4840;DHT22;2434;48.486;7.964;2024-03-25T01:46:50;5.70;66.40
4840;DHT22;2434;48.486;7.964;2024-03-25T01:49:19;5.70;66.30
4840;DHT22;2434;48.486;7.964;2024-03-25T01:51:47;5.80;66.20
4840;DHT22;2434;48.486;7.964;2024-03-25T01:54:14;5.70;66.30
4840;DHT22;2434;48.486;7.964;2024-03-25T01:56:44;5.70;66.40
4840;DHT22;2434;48.486;7.964;2024-03-25T01:59:13;5.70;66.30
4840;DHT22;2434;48.486;7.964;2024-03-25T02:01:43;5.70;66.50
4840;DHT22;2434;48.486;7.964;2024-03-25T02:04:11;5.70;66.70
4840;DHT22;2434;48.486;7.964;2024-03-25T02:06:41;5.70;66.70
4840;DHT22;2434;48.486;7.964;2024-03-25T02:09:09;5.60;66.60
4840;DHT22;2434;48.486;7.964;2024-03-25T02:11:39;5.60;66.70
4840;DHT22;2434;48.486;7.964;2024-03-25T02:14:07;5.60;66.80
4840;DHT22;2434;48.486;7.964;2024-03-25T02:16:34;5.60;66.90
4840;DHT22;2434;48.486;7.964;2024-03-25T02:19:01;5.60;66.90
4840;DHT22;2434;48.486;7.964;2024-03-25T02:21:28;5.50;67.00
4840;DHT22;2434;48.486;7.964;2024-03-25T02:23:56;5.50;67.30
4840;DHT22;2434;48.486;7.964;2024-03-25T02:26:28;5.40;67.40
4840;DHT22;2434;48.486;7.964;2024-03-25T02:28:54;5.40;67.80
4840;DHT22;2434;48.486;7.964;2024-03-25T02:31:21;5.40;68.20
4840;DHT22;2434;48.486;7.964;2024-03-25T02:33:48;5.40;68.40
4840;DHT22;2434;48.486;7.964;2024-03-25T02:36:15;5.40;68.30
4840;DHT22;2434;48.486;7.964;2024-03-25T02:38:41;5.50;68.10
4840;DHT22;2434;48.486;7.964;2024-03-25T02:41:08;5.40;67.80
4840;DHT22;2434;48.486;7.964;2024-03-25T02:43:36;5.50;68.00
4840;DHT22;2434;48.486;7.964;2024-03-25T02:46:03;5.40;68.00
4840;DHT22;2434;48.486;7.964;2024-03-25T02:48:29;5.40;68.30
4840;DHT22;2434;48.486;7.964;2024-03-25T02:50:57;5.30;68.90
4840;DHT22;2434;48.486;7.964;2024-03-25T02:53:23;5.30;69.10
4840;DHT22;2434;48.486;7.964;2024-03-25T02:55:50;5.30;69.20
4840;DHT22;2434;48.486;7.964;2024-03-25T02:58:16;5.30;69.50
4840;DHT22;2434;48.486;7.964;2024-03-25T03:00:45;5.30;69.60
4840;DHT22;2434;48.486;7.964;2024-03-25T03:03:11;5.30;69.90
4840;DHT22;2434;48.486;7.964;2024-03-25T03:05:38;5.20;70.10
4840;DHT22;2434;48.486;7.964;2024-03-25T03:08:05;5.20;70.30
4840;DHT22;2434;48.486;7.964;2024-03-25T03:10:32;5.20;70.50
4840;DHT22;2434;48.486;7.964;2024-03-25T03:12:58;5.20;70.40
4840;DHT22;2434;48.486;7.964;2024-03-25T03:15:26;5.30;70.50
4840;DHT22;2434;48.486;7.964;2024-03-25T03:17:53;5.30;70.30
4840;DHT22;2434;48.486;7.964;2024-03-25T03:20:20;5.30;69.90
4840;DHT22;2434;48.486;7.964;2024-03-25T03:22:47;5.30;69.70
4840;DHT22;2434;48.486;7.964;2024-03-25T03:25:14;5.40;69.30
4840;DHT22;2434;48.486;7.964;2024-03-25T03:27:42;5.40;69.00
4840;DHT22;2434;48.486;7.964;2024-03-25T03:30:10;5.30;69.50
4840;DHT22;2434;48.486;7.964;2024-03-25T03:32:36;5.30;69.80
4840;DHT22;2434;48.486;7.964;2024-03-25T03:35:06;5.30;70.10
4840;DHT22;2434;48.486;7.964;2024-03-25T03:37:33;5.30;70.30
4840;DHT22;2434;48.486;7.964;2024-03-25T03:40:00;5.20;70.40
4840;DHT22;2434;48.486;7.964;2024-03-25T03:42:26;5.30;70.50
4840;DHT22;2434;48.486;7.964;2024-03-25T03:44:53;5.30;70.60
4840;DHT22;2434;48.486;7.964;2024-03-25T03:47:19;5.30;70.70
4840;DHT22;2434;48.486;7.964;2024-03-25T03:49:46;5.30;70.80
4840;DHT22;2434;48.486;7.964;2024-03-25T03:52:14;5.40;70.70
4840;DHT22;2434;48.486;7.964;2024-03-25T03:54:41;5.40;70.70
4840;DHT22;2434;48.486;7.964;2024-03-25T03:57:07;5.40;70.50
4840;DHT22;2434;48.486;7.964;2024-03-25T03:59:34;5.40;70.60
4840;DHT22;2434;48.486;7.964;2024-03-25T04:02:01;5.40;70.50
4840;DHT22;2434;48.486;7.964;2024-03-25T04:04:28;5.40;70.60
4840;DHT22;2434;48.486;7.964;2024-03-25T04:06:55;5.50;70.40
4840;DHT22;2434;48.486;7.964;2024-03-25T04:09:23;5.50;70.50
4840;DHT22;2434;48.486;7.964;2024-03-25T04:11:50;5.50;70.40
4840;DHT22;2434;48.486;7.964;2024-03-25T04:14:17;5.50;70.20
4840;DHT22;2434;48.486;7.964;2024-03-25T04:16:43;5.50;70.00
4840;DHT22;2434;48.486;7.964;2024-03-25T04:19:10;5.50;70.00
4840;DHT22;2434;48.486;7.964;2024-03-25T04:21:37;5.50;70.20
4840;DHT22;2434;48.486;7.964;2024-03-25T04:24:05;5.50;70.50
4840;DHT22;2434;48.486;7.964;2024-03-25T04:26:33;5.50;70.40
4840;DHT22;2434;48.486;7.964;2024-03-25T04:29:00;5.50;70.10
4840;DHT22;2434;48.486;7.964;2024-03-25T04:31:26;5.40;70.10
4840;DHT22;2434;48.486;7.964;2024-03-25T04:33:53;5.50;70.20
4840;DHT22;2434;48.486;7.964;2024-03-25T04:36:20;5.50;70.10
4840;DHT22;2434;48.486;7.964;2024-03-25T04:38:47;5.50;70.10
4840;DHT22;2434;48.486;7.964;2024-03-25T04:41:16;5.50;70.20
4840;DHT22;2434;48.486;7.964;2024-03-25T04:43:43;5.50;70.00
4840;DHT22;2434;48.486;7.964;2024-03-25T04:46:10;5.40;69.70
4840;DHT22;2434;48.486;7.964;2024-03-25T04:48:36;5.50;69.50
4840;DHT22;2434;48.486;7.964;2024-03-25T04:51:03;5.50;69.50
4840;DHT22;2434;48.486;7.964;2024-03-25T04:53:30;5.50;69.60
4840;DHT22;2434;48.486;7.964;2024-03-25T04:55:57;5.50;69.20
4840;DHT22;2434;48.486;7.964;2024-03-25T04:58:26;5.60;69.10
4840;DHT22;2434;48.486;7.964;2024-03-25T05:00:57;5.60;68.90
4840;DHT22;2434;48.486;7.964;2024-03-25T05:03:23;5.60;68.70
4840;DHT22;2434;48.486;7.964;2024-03-25T05:05:49;5.60;68.30
4840;DHT22;2434;48.486;7.964;2024-03-25T05:08:16;5.60;68.30
4840;DHT22;2434;48.486;7.964;2024-03-25T05:10:42;5.60;68.10
4840;DHT22;2434;48.486;7.964;2024-03-25T05:13:09;5.60;67.90
4840;DHT22;2434;48.486;7.964;2024-03-25T05:15:35;5.60;67.60
4840;DHT22;2434;48.486;7.964;2024-03-25T05:18:03;5.60;67.60
4840;DHT22;2434;48.486;7.964;2024-03-25T05:20:30;5.60;67.80
4840;DHT22;2434;48.486;7.964;2024-03-25T05:22:56;5.50;67.60
4840;DHT22;2434;48.486;7.964;2024-03-25T05:25:22;5.50;67.70
4840;DHT22;2434;48.486;7.964;2024-03-25T05:27:48;5.40;67.70
4840;DHT22;2434;48.486;7.964;2024-03-25T05:30:15;5.50;67.90
4840;DHT22;2434;48.486;7.964;2024-03-25T05:32:41;5.40;68.00
4840;DHT22;2434;48.486;7.964;2024-03-25T05:35:09;5.40;68.00
4840;DHT22;2434;48.486;7.964;2024-03-25T05:37:35;5.40;67.80
4840;DHT22;2434;48.486;7.964;2024-03-25T05:40:02;5.40;68.00
4840;DHT22;2434;48.486;7.964;2024-03-25T05:42:28;5.40;68.10
4840;DHT22;2434;48.486;7.964;2024-03-25T05:44:54;5.40;68.30
4840;DHT22;2434;48.486;7.964;2024-03-25T05:47:21;5.30;68.50
4840;DHT22;2434;48.486;7.964;2024-03-25T05:49:48;5.30;68.70
4840;DHT22;2434;48.486;7.964;2024-03-25T05:52:15;5.30;69.10
4840;DHT22;2434;48.486;7.964;2024-03-25T05:54:42;5.30;69.10
4840;DHT22;2434;48.486;7.964;2024-03-25T05:57:08;5.40;69.00
4840;DHT22;2434;48.486;7.964;2024-03-25T05:59:34;5.40;69.10
4840;DHT22;2434;48.486;7.964;2024-03-25T06:02:01;5.40;69.10
4840;DHT22;2434;48.486;7.964;2024-03-25T06:04:27;5.40;69.10
4840;DHT22;2434;48.486;7.964;2024-03-25T06:06:53;5.40;69.20
4840;DHT22;2434;48.486;7.964;2024-03-25T06:09:21;5.40;69.20
4840;DHT22;2434;48.486;7.964;2024-03-25T06:11:47;5.40;69.40
4840;DHT22;2434;48.486;7.964;2024-03-25T06:14:13;5.40;69.40
4840;DHT22;2434;48.486;7.964;2024-03-25T06:16:40;5.50;69.20
4840;DHT22;2434;48.486;7.964;2024-03-25T06:19:06;5.50;68.90
4840;DHT22;2434;48.486;7.964;2024-03-25T06:21:32;5.50;68.80
4840;DHT22;2434;48.486;7.964;2024-03-25T06:23:58;5.60;68.80
4840;DHT22;2434;48.486;7.964;2024-03-25T06:26:26;5.60;68.70
4840;DHT22;2434;48.486;7.964;2024-03-25T06:28:52;5.60;68.50
4840;DHT22;2434;48.486;7.964;2024-03-25T06:31:18;5.60;68.60
4840;DHT22;2434;48.486;7.964;2024-03-25T06:34:03;5.60;68.70
4840;DHT22;2434;48.486;7.964;2024-03-25T06:36:41;5.70;68.70
4840;DHT22;2434;48.486;7.964;2024-03-25T06:39:07;5.70;68.60
4840;DHT22;2434;48.486;7.964;2024-03-25T06:41:35;5.70;68.50
4840;DHT22;2434;48.486;7.964;2024-03-25T06:44:01;5.70;68.50
4840;DHT22;2434;48.486;7.964;2024-03-25T06:46:27;5.80;68.60
4840;DHT22;2434;48.486;7.964;2024-03-25T06:48:53;5.80;68.60
4840;DHT22;2434;48.486;7.964;2024-03-25T06:51:20;5.80;68.60
4840;DHT22;2434;48.486;7.964;2024-03-25T06:53:46;5.80;68.60
4840;DHT22;2434;48.486;7.964;2024-03-25T06:56:12;5.80;68.40
4840;DHT22;2434;48.486;7.964;2024-03-25T06:58:39;5.90;68.40
4840;DHT22;2434;48.486;7.964;2024-03-25T07:01:07;5.90;68.50
4840;DHT22;2434;48.486;7.964;2024-03-25T07:03:34;5.90;68.60
4840;DHT22;2434;48.486;7.964;2024-03-25T07:06:01;5.90;68.70
4840;DHT22;2434;48.486;7.964;2024-03-25T07:08:28;5.90;68.90
4840;DHT22;2434;48.486;7.964;2024-03-25T07:10:54;6.00;69.20
4840;DHT22;2434;48.486;7.964;2024-03-25T07:13:20;6.00;69.30
4840;DHT22;2434;48.486;7.964;2024-03-25T07:15:50;6.00;69.50
4840;DHT22;2434;48.486;7.964;2024-03-25T07:18:17;6.00;70.00
4840;DHT22;2434;48.486;7.964;2024-03-25T07:20:44;6.10;70.20
4840;DHT22;2434;48.486;7.964;2024-03-25T07:23:10;6.10;69.60
4840;DHT22;2434;48.486;7.964;2024-03-25T07:25:37;6.20;69.20
4840;DHT22;2434;48.486;7.964;2024-03-25T07:28:03;6.30;68.60
4840;DHT22;2434;48.486;7.964;2024-03-25T07:30:30;6.40;67.30
4840;DHT22;2434;48.486;7.964;2024-03-25T07:32:58;6.40;66.50
4840;DHT22;2434;48.486;7.964;2024-03-25T07:35:25;6.40;66.40
4840;DHT22;2434;48.486;7.964;2024-03-25T07:37:51;6.50;65.10
4840;DHT22;2434;48.486;7.964;2024-03-25T07:40:18;6.60;64.60
4840;DHT22;2434;48.486;7.964;2024-03-25T07:42:44;6.60;64.00
4840;DHT22;2434;48.486;7.964;2024-03-25T07:45:10;6.60;64.10
4840;DHT22;2434;48.486;7.964;2024-03-25T07:47:37;6.70;64.20
4840;DHT22;2434;48.486;7.964;2024-03-25T07:50:05;6.70;63.90
4840;DHT22;2434;48.486;7.964;2024-03-25T07:52:32;6.80;63.90
4840;DHT22;2434;48.486;7.964;2024-03-25T07:54:58;6.80;62.50
4840;DHT22;2434;48.486;7.964;2024-03-25T07:57:24;6.90;63.20
4840;DHT22;2434;48.486;7.964;2024-03-25T07:59:50;6.90;64.00
4840;DHT22;2434;48.486;7.964;2024-03-25T08:02:17;7.00;64.80
4840;DHT22;2434;48.486;7.964;2024-03-25T08:04:43;7.10;65.20
4840;DHT22;2434;48.486;7.964;2024-03-25T08:07:11;7.10;65.70
4840;DHT22;2434;48.486;7.964;2024-03-25T08:09:39;7.20;65.40
4840;DHT22;2434;48.486;7.964;2024-03-25T08:12:05;7.20;64.30
4840;DHT22;2434;48.486;7.964;2024-03-25T08:14:32;7.30;65.00
4840;DHT22;2434;48.486;7.964;2024-03-25T08:16:58;7.40;64.00
4840;DHT22;2434;48.486;7.964;2024-03-25T08:19:25;7.50;63.10
4840;DHT22;2434;48.486;7.964;2024-03-25T08:21:51;7.60;61.50
4840;DHT22;2434;48.486;7.964;2024-03-25T08:24:19;7.70;60.20
4840;DHT22;2434;48.486;7.964;2024-03-25T08:26:45;7.80;59.80
4840;DHT22;2434;48.486;7.964;2024-03-25T08:29:12;7.90;59.20
4840;DHT22;2434;48.486;7.964;2024-03-25T08:31:38;7.90;58.90
4840;DHT22;2434;48.486;7.964;2024-03-25T08:34:04;8.00;57.20
4840;DHT22;2434;48.486;7.964;2024-03-25T08:36:30;8.10;56.80
4840;DHT22;2434;48.486;7.964;2024-03-25T08:38:56;8.30;56.90
4840;DHT22;2434;48.486;7.964;2024-03-25T08:41:24;8.40;57.00
4840;DHT22;2434;48.486;7.964;2024-03-25T08:43:50;8.40;52.20
4840;DHT22;2434;48.486;7.964;2024-03-25T08:46:16;8.50;53.30
4840;DHT22;2434;48.486;7.964;2024-03-25T08:48:42;8.50;53.00
4840;DHT22;2434;48.486;7.964;2024-03-25T08:51:08;8.50;52.80
4840;DHT22;2434;48.486;7.964;2024-03-25T08:53:34;8.50;54.50
4840;DHT22;2434;48.486;7.964;2024-03-25T08:56:01;8.50;52.60
4840;DHT22;2434;48.486;7.964;2024-03-25T08:58:28;8.60;52.80
4840;DHT22;2434;48.486;7.964;2024-03-25T09:00:54;8.80;52.40
4840;DHT22;2434;48.486;7.964;2024-03-25T09:03:20;8.80;49.80
4840;DHT22;2434;48.486;7.964;2024-03-25T09:05:47;8.80;50.40
4840;DHT22;2434;48.486;7.964;2024-03-25T09:08:13;8.90;50.20
4840;DHT22;2434;48.486;7.964;2024-03-25T09:10:39;9.00;47.40
4840;DHT22;2434;48.486;7.964;2024-03-25T09:13:23;9.00;48.20
4840;DHT22;2434;48.486;7.964;2024-03-25T09:15:51;9.00;49.70
4840;DHT22;2434;48.486;7.964;2024-03-25T09:18:19;9.00;49.10
4840;DHT22;2434;48.486;7.964;2024-03-25T09:20:45;9.00;50.50
4840;DHT22;2434;48.486;7.964;2024-03-25T09:23:12;8.90;49.80
4840;DHT22;2434;48.486;7.964;2024-03-25T09:25:38;9.00;51.10
4840;DHT22;2434;48.486;7.964;2024-03-25T09:28:04;9.10;50.60
4840;DHT22;2434;48.486;7.964;2024-03-25T09:30:30;9.00;49.70
4840;DHT22;2434;48.486;7.964;2024-03-25T09:32:58;9.00;48.10
4840;DHT22;2434;48.486;7.964;2024-03-25T09:35:24;9.00;48.50
4840;DHT22;2434;48.486;7.964;2024-03-25T09:37:50;9.30;48.90
4840;DHT22;2434;48.486;7.964;2024-03-25T09:40:16;9.20;48.50
4840;DHT22;2434;48.486;7.964;2024-03-25T09:42:49;9.20;49.90
4840;DHT22;2434;48.486;7.964;2024-03-25T09:45:18;9.50;47.70
4840;DHT22;2434;48.486;7.964;2024-03-25T09:47:46;9.50;44.80
4840;DHT22;2434;48.486;7.964;2024-03-25T09:50:14;9.40;45.40
4840;DHT22;2434;48.486;7.964;2024-03-25T09:52:41;9.30;45.20
4840;DHT22;2434;48.486;7.964;2024-03-25T09:55:07;9.30;46.20
4840;DHT22;2434;48.486;7.964;2024-03-25T09:57:34;9.30;47.10
4840;DHT22;2434;48.486;7.964;2024-03-25T10:00:01;9.20;47.90
4840;DHT22;2434;48.486;7.964;2024-03-25T10:02:39;9.20;48.10
4840;DHT22;2434;48.486;7.964;2024-03-25T10:05:06;9.20;46.40
4840;DHT22;2434;48.486;7.964;2024-03-25T10:07:34;9.20;46.90
4840;DHT22;2434;48.486;7.964;2024-03-25T10:10:03;9.60;45.40
4840;DHT22;2434;48.486;7.964;2024-03-25T10:12:29;9.70;45.00
4840;DHT22;2434;48.486;7.964;2024-03-25T10:14:56;9.80;46.10
4840;DHT22;2434;48.486;7.964;2024-03-25T10:17:22;10.10;44.00
4840;DHT22;2434;48.486;7.964;2024-03-25T10:19:48;10.30;44.80
4840;DHT22;2434;48.486;7.964;2024-03-25T10:22:14;10.30;45.00
4840;DHT22;2434;48.486;7.964;2024-03-25T10:24:43;10.20;45.20
4840;DHT22;2434;48.486;7.964;2024-03-25T10:27:18;10.10;44.70
4840;DHT22;2434;48.486;7.964;2024-03-25T10:29:44;10.00;45.20
4840;DHT22;2434;48.486;7.964;2024-03-25T10:32:10;9.90;45.40
4840;DHT22;2434;48.486;7.964;2024-03-25T10:34:38;9.90;46.00
4840;DHT22;2434;48.486;7.964;2024-03-25T10:37:05;9.80;44.70
4840;DHT22;2434;48.486;7.964;2024-03-25T10:39:39;9.80;46.00
4840;DHT22;2434;48.486;7.964;2024-03-25T10:42:13;9.80;45.00
4840;DHT22;2434;48.486;7.964;2024-03-25T10:44:40;9.80;43.20
4840;DHT22;2434;48.486;7.964;2024-03-25T10:47:07;9.80;44.00
4840;DHT22;2434;48.486;7.964;2024-03-25T10:49:38;9.80;44.10
4840;DHT22;2434;48.486;7.964;2024-03-25T10:52:07;9.80;43.50
4840;DHT22;2434;48.486;7.964;2024-03-25T10:54:35;9.80;44.30
4840;DHT22;2434;48.486;7.964;2024-03-25T10:57:03;10.00;47.50
4840;DHT22;2434;48.486;7.964;2024-03-25T10:59:31;10.30;44.90
4840;DHT22;2434;48.486;7.964;2024-03-25T11:01:58;10.70;43.20
4840;DHT22;2434;48.486;7.964;2024-03-25T11:04:24;10.90;41.80
4840;DHT22;2434;48.486;7.964;2024-03-25T11:06:51;10.90;42.20
4840;DHT22;2434;48.486;7.964;2024-03-25T11:09:23;10.90;42.30
4840;DHT22;2434;48.486;7.964;2024-03-25T11:11:53;10.80;41.70
4840;DHT22;2434;48.486;7.964;2024-03-25T11:14:19;10.80;42.10
4840;DHT22;2434;48.486;7.964;2024-03-25T11:16:52;10.70;41.10
4840;DHT22;2434;48.486;7.964;2024-03-25T11:19:20;10.70;41.00
4840;DHT22;2434;48.486;7.964;2024-03-25T11:21:46;10.70;43.00
4840;DHT22;2434;48.486;7.964;2024-03-25T11:24:12;10.70;43.10
4840;DHT22;2434;48.486;7.964;2024-03-25T11:26:42;10.80;43.30
4840;DHT22;2434;48.486;7.964;2024-03-25T11:29:08;10.80;40.90
4840;DHT22;2434;48.486;7.964;2024-03-25T11:31:37;10.80;41.40
4840;DHT22;2434;48.486;7.964;2024-03-25T11:34:06;10.80;39.20
4840;DHT22;2434;48.486;7.964;2024-03-25T11:36:32;10.90;39.30
4840;DHT22;2434;48.486;7.964;2024-03-25T11:38:59;10.90;37.80
4840;DHT22;2434;48.486;7.964;2024-03-25T11:41:26;10.90;38.50
4840;DHT22;2434;48.486;7.964;2024-03-25T11:43:52;11.00;38.30
4840;DHT22;2434;48.486;7.964;2024-03-25T11:46:19;11.00;37.70
4840;DHT22;2434;48.486;7.964;2024-03-25T11:48:45;11.40;38.50
4840;DHT22;2434;48.486;7.964;2024-03-25T11:51:16;11.40;35.70
4840;DHT22;2434;48.486;7.964;2024-03-25T11:53:43;11.40;35.40
4840;DHT22;2434;48.486;7.964;2024-03-25T11:56:10;11.60;33.10
4840;DHT22;2434;48.486;7.964;2024-03-25T11:58:36;11.70;35.20
4840;DHT22;2434;48.486;7.964;2024-03-25T12:01:04;11.90;32.90
4840;DHT22;2434;48.486;7.964;2024-03-25T12:03:30;12.00;31.40
4840;DHT22;2434;48.486;7.964;2024-03-25T12:05:56;12.20;29.30
4840;DHT22;2434;48.486;7.964;2024-03-25T12:08:24;12.10;28.80
4840;DHT22;2434;48.486;7.964;2024-03-25T12:10:50;12.00;27.50
4840;DHT22;2434;48.486;7.964;2024-03-25T12:13:36;12.00;25.80
4840;DHT22;2434;48.486;7.964;2024-03-25T12:16:04;12.00;25.60
4840;DHT22;2434;48.486;7.964;2024-03-25T12:18:30;12.50;26.40
4840;DHT22;2434;48.486;7.964;2024-03-25T12:20:57;13.00;23.10
4840;DHT22;2434;48.486;7.964;2024-03-25T12:23:29;13.60;21.70
4840;DHT22;2434;48.486;7.964;2024-03-25T12:25:55;13.70;21.50
4840;DHT22;2434;48.486;7.964;2024-03-25T12:28:21;13.60;21.60
4840;DHT22;2434;48.486;7.964;2024-03-25T12:30:52;13.60;22.40
4840;DHT22;2434;48.486;7.964;2024-03-25T12:33:18;13.90;24.10
4840;DHT22;2434;48.486;7.964;2024-03-25T12:35:45;14.00;24.40
4840;DHT22;2434;48.486;7.964;2024-03-25T12:38:26;14.30;23.90
4840;DHT22;2434;48.486;7.964;2024-03-25T12:40:53;14.10;21.80
4840;DHT22;2434;48.486;7.964;2024-03-25T12:43:20;14.30;21.20
4840;DHT22;2434;48.486;7.964;2024-03-25T12:45:46;14.30;23.10
4840;DHT22;2434;48.486;7.964;2024-03-25T12:48:12;14.50;21.00
4840;DHT22;2434;48.486;7.964;2024-03-25T12:50:38;14.70;23.40
4840;DHT22;2434;48.486;7.964;2024-03-25T12:53:04;14.50;22.00
4840;DHT22;2434;48.486;7.964;2024-03-25T12:55:32;14.60;24.00
4840;DHT22;2434;48.486;7.964;2024-03-25T12:57:58;14.60;24.30
4840;DHT22;2434;48.486;7.964;2024-03-25T13:00:24;14.60;23.10
4840;DHT22;2434;48.486;7.964;2024-03-25T13:02:50;14.90;20.60
4840;DHT22;2434;48.486;7.964;2024-03-25T13:05:17;15.10;18.50
4840;DHT22;2434;48.486;7.964;2024-03-25T13:07:43;15.20;18.30
4840;DHT22;2434;48.486;7.964;2024-03-25T13:10:09;15.30;14.60
4840;DHT22;2434;48.486;7.964;2024-03-25T13:12:37;15.20;16.10
4840;DHT22;2434;48.486;7.964;2024-03-25T13:15:03;15.40;18.30
4840;DHT22;2434;48.486;7.964;2024-03-25T13:17:30;15.50;17.70
4840;DHT22;2434;48.486;7.964;2024-03-25T13:19:56;15.60;17.20
4840;DHT22;2434;48.486;7.964;2024-03-25T13:22:22;15.80;18.60
4840;DHT22;2434;48.486;7.964;2024-03-25T13:24:48;15.80;20.60
4840;DHT22;2434;48.486;7.964;2024-03-25T13:27:15;15.90;16.90
4840;DHT22;2434;48.486;7.964;2024-03-25T13:29:43;15.90;17.70
4840;DHT22;2434;48.486;7.964;2024-03-25T13:32:09;16.00;17.60
4840;DHT22;2434;48.486;7.964;2024-03-25T13:34:35;16.20;19.10
4840;DHT22;2434;48.486;7.964;2024-03-25T13:37:01;16.20;17.70
4840;DHT22;2434;48.486;7.964;2024-03-25T13:39:27;16.20;17.90
4840;DHT22;2434;48.486;7.964;2024-03-25T13:41:54;16.00;17.60
4840;DHT22;2434;48.486;7.964;2024-03-25T13:44:23;16.10;18.30
4840;DHT22;2434;48.486;7.964;2024-03-25T13:46:51;15.90;18.90
4840;DHT22;2434;48.486;7.964;2024-03-25T13:49:17;16.00;15.90
4840;DHT22;2434;48.486;7.964;2024-03-25T13:51:43;16.00;17.50
4840;DHT22;2434;48.486;7.964;2024-03-25T13:54:09;16.10;18.10
4840;DHT22;2434;48.486;7.964;2024-03-25T13:56:35;16.20;18.00
4840;DHT22;2434;48.486;7.964;2024-03-25T13:59:02;16.20;17.80
4840;DHT22;2434;48.486;7.964;2024-03-25T14:01:28;16.00;19.00
4840;DHT22;2434;48.486;7.964;2024-03-25T14:03:55;16.00;20.10
4840;DHT22;2434;48.486;7.964;2024-03-25T14:06:22;16.10;20.30
4840;DHT22;2434;48.486;7.964;2024-03-25T14:08:48;16.20;17.90
4840;DHT22;2434;48.486;7.964;2024-03-25T14:11:14;16.10;18.30
4840;DHT22;2434;48.486;7.964;2024-03-25T14:13:40;16.10;19.70
4840;DHT22;2434;48.486;7.964;2024-03-25T14:16:06;16.30;18.70
4840;DHT22;2434;48.486;7.964;2024-03-25T14:18:32;16.40;17.90
4840;DHT22;2434;48.486;7.964;2024-03-25T14:21:00;16.40;17.00
4840;DHT22;2434;48.486;7.964;2024-03-25T14:23:27;16.30;18.20
4840;DHT22;2434;48.486;7.964;2024-03-25T14:25:53;16.30;20.00
4840;DHT22;2434;48.486;7.964;2024-03-25T14:28:19;16.30;19.70
4840;DHT22;2434;48.486;7.964;2024-03-25T14:30:45;16.40;14.90
4840;DHT22;2434;48.486;7.964;2024-03-25T14:33:12;16.40;14.00
4840;DHT22;2434;48.486;7.964;2024-03-25T14:35:38;16.30;14.20
4840;DHT22;2434;48.486;7.964;2024-03-25T14:38:05;16.20;14.20
4840;DHT22;2434;48.486;7.964;2024-03-25T14:40:32;16.00;14.40
4840;DHT22;2434;48.486;7.964;2024-03-25T14:42:58;16.00;15.30
4840;DHT22;2434;48.486;7.964;2024-03-25T14:45:24;15.90;14.60
4840;DHT22;2434;48.486;7.964;2024-03-25T14:47:50;15.80;14.30
4840;DHT22;2434;48.486;7.964;2024-03-25T14:50:17;15.80;15.30
4840;DHT22;2434;48.486;7.964;2024-03-25T14:52:43;15.70;15.30
4840;DHT22;2434;48.486;7.964;2024-03-25T14:55:11;15.60;15.40
4840;DHT22;2434;48.486;7.964;2024-03-25T14:57:37;15.60;15.50
4840;DHT22;2434;48.486;7.964;2024-03-25T15:00:04;15.70;15.00
4840;DHT22;2434;48.486;7.964;2024-03-25T15:02:30;15.80;17.10
4840;DHT22;2434;48.486;7.964;2024-03-25T15:04:57;15.90;15.50
4840;DHT22;2434;48.486;7.964;2024-03-25T15:07:23;15.90;15.50
4840;DHT22;2434;48.486;7.964;2024-03-25T15:09:49;15.80;13.70
4840;DHT22;2434;48.486;7.964;2024-03-25T15:12:17;15.60;14.50
4840;DHT22;2434;48.486;7.964;2024-03-25T15:14:43;15.60;14.80
4840;DHT22;2434;48.486;7.964;2024-03-25T15:17:09;15.70;15.40
4840;DHT22;2434;48.486;7.964;2024-03-25T15:19:35;15.80;16.20
4840;DHT22;2434;48.486;7.964;2024-03-25T15:22:01;15.70;15.20
4840;DHT22;2434;48.486;7.964;2024-03-25T15:24:27;15.90;15.00
4840;DHT22;2434;48.486;7.964;2024-03-25T15:26:54;15.90;15.30
4840;DHT22;2434;48.486;7.964;2024-03-25T15:29:21;15.90;15.50
4840;DHT22;2434;48.486;7.964;2024-03-25T15:31:47;16.00;16.10
4840;DHT22;2434;48.486;7.964;2024-03-25T15:34:13;16.00;14.90
4840;DHT22;2434;48.486;7.964;2024-03-25T15:36:40;15.80;13.40
4840;DHT22;2434;48.486;7.964;2024-03-25T15:39:06;15.80;14.30
4840;DHT22;2434;48.486;7.964;2024-03-25T15:41:32;15.90;14.70
4840;DHT22;2434;48.486;7.964;2024-03-25T15:43:58;15.80;15.10
4840;DHT22;2434;48.486;7.964;2024-03-25T15:46:26;15.80;14.20
4840;DHT22;2434;48.486;7.964;2024-03-25T15:48:52;15.70;14.20
4840;DHT22;2434;48.486;7.964;2024-03-25T15:51:18;15.70;14.20
4840;DHT22;2434;48.486;7.964;2024-03-25T15:53:44;15.70;15.10
4840;DHT22;2434;48.486;7.964;2024-03-25T15:56:11;15.50;13.60
4840;DHT22;2434;48.486;7.964;2024-03-25T15:58:37;15.50;14.10
4840;DHT22;2434;48.486;7.964;2024-03-25T16:01:03;15.50;15.50
4840;DHT22;2434;48.486;7.964;2024-03-25T16:03:31;15.50;15.40
4840;DHT22;2434;48.486;7.964;2024-03-25T16:05:57;15.60;14.80
4840;DHT22;2434;48.486;7.964;2024-03-25T16:08:23;15.60;14.40
4840;DHT22;2434;48.486;7.964;2024-03-25T16:10:49;15.60;14.40